CheckWX is a tool to help pilots better visualize weather data.  It is not intended as a substitute for an official pre-flight weather briefing.

08:00:56 UTC

RPVM TAF
Mactan Cebu International Airport
Lapu-Lapu City, Philippines
TAF RPVM 190500Z 1906/2012 04010KT 9999 FEW020 OVC100 TEMPO 1906/1912 03012KT 9000 -SHRA SCT020 OVC090 TEMPO 1912/1918 05008KT FEW020 BKN100

Mar-19@
06:00 UTC

Mar-19 @ 06:00 UTC

Mar-20@
12:00 UTC

Mar-20 @ 12:00 UTC

TAF RPVM 190500Z 1906/2012 04010KT 9999 FEW020 OVC100
Wind
  • 040° at 10 KTS
Cloud Levels
  • Few at 2,000' AGL
  • Overcast at 10,000' AGL

Mar-19@
06:00 UTC

Mar-19 @ 06:00 UTC

Mar-19@
12:00 UTC

Mar-19 @ 12:00 UTC

TEMPO 1906/1912 03012KT 9000 -SHRA SCT020 OVC090

Temporary

Temporary Changes expected for less than half the time period

Wind
  • 030° at 12 KTS
Conditions
Light Rain
Cloud Levels
  • Scattered at 2,000' AGL
  • Overcast at 9,000' AGL

Mar-19@
12:00 UTC

Mar-19 @ 12:00 UTC

Mar-19@
18:00 UTC

Mar-19 @ 18:00 UTC

TEMPO 1912/1918 05008KT FEW020 BKN100

Temporary

Temporary Changes expected for less than half the time period

Wind
  • 050° at 8 KTS
Cloud Levels
  • Few at 2,000' AGL
  • Broken at 10,000' AGL